createdAt,value
2018-07-10T00:02:38.289Z,18.85
2018-07-10T00:05:29.413Z,18.76
2018-07-10T00:10:15.937Z,18.74
2018-07-10T00:12:43.957Z,18.73
2018-07-10T00:15:14.062Z,18.72
2018-07-10T00:17:42.128Z,18.70
2018-07-10T00:20:10.292Z,18.74
2018-07-10T00:22:38.437Z,18.79
2018-07-10T00:25:06.562Z,18.75
2018-07-10T00:27:34.579Z,18.70
2018-07-10T00:30:02.669Z,18.71
2018-07-10T00:32:31.129Z,18.65
2018-07-10T00:34:59.367Z,18.69
2018-07-10T00:37:27.648Z,18.64
2018-07-10T00:39:55.827Z,18.64
2018-07-10T00:42:24.928Z,18.72
2018-07-10T00:44:52.905Z,18.63
2018-07-10T00:47:21.473Z,18.70
2018-07-10T00:49:49.593Z,18.71
2018-07-10T00:52:29.825Z,18.72
2018-07-10T00:54:58.001Z,18.71
2018-07-10T00:57:26.183Z,18.65
2018-07-10T00:59:54.476Z,18.75
2018-07-10T01:02:22.855Z,18.72
2018-07-10T01:04:50.885Z,18.73
2018-07-10T01:07:19.032Z,18.88
2018-07-10T01:09:47.265Z,18.88
2018-07-10T01:12:15.514Z,18.87
2018-07-10T01:14:43.693Z,18.85
2018-07-10T01:17:11.926Z,18.90
2018-07-10T01:19:40.451Z,18.95
2018-07-10T01:22:08.905Z,18.93
2018-07-10T01:24:37.333Z,18.95
2018-07-10T01:27:05.580Z,18.95
2018-07-10T01:29:49.437Z,18.96
2018-07-10T01:32:18.268Z,18.98
2018-07-10T01:34:46.488Z,18.98
2018-07-10T01:37:14.928Z,18.99
2018-07-10T01:39:44.129Z,18.94
2018-07-10T01:42:12.212Z,18.94
2018-07-10T01:44:40.422Z,19.01
2018-07-10T01:47:08.606Z,19.03
2018-07-10T01:49:36.768Z,18.98
2018-07-10T01:52:04.881Z,18.82
2018-07-10T01:54:33.022Z,18.78
2018-07-10T01:57:01.201Z,18.80
2018-07-10T01:59:29.515Z,18.77
2018-07-10T02:01:57.756Z,18.81
2018-07-10T02:04:25.899Z,18.57
2018-07-10T02:06:54.116Z,18.55
2018-07-10T02:09:22.320Z,18.52
2018-07-10T02:11:50.562Z,18.53
2018-07-10T02:14:18.627Z,18.63
2018-07-10T02:16:46.884Z,18.59
2018-07-10T02:19:15.267Z,18.62
2018-07-10T02:21:43.524Z,18.61
2018-07-10T02:24:13.177Z,18.68
2018-07-10T02:26:41.430Z,18.70
2018-07-10T02:29:10.458Z,18.68
2018-07-10T02:31:38.530Z,18.61
2018-07-10T02:34:06.689Z,18.65
2018-07-10T02:36:35.180Z,18.60
2018-07-10T02:39:03.810Z,18.42
2018-07-10T02:41:32.089Z,18.42
2018-07-10T02:44:02.476Z,18.46
2018-07-10T02:46:31.932Z,18.48
2018-07-10T02:49:16.902Z,18.58
2018-07-10T02:52:02.829Z,18.55
2018-07-10T02:54:39.564Z,18.57
2018-07-10T02:57:09.117Z,18.52
2018-07-10T02:59:40.490Z,18.50
2018-07-10T03:02:16.724Z,18.50
2018-07-10T03:04:45.187Z,18.58
2018-07-10T03:07:18.182Z,18.49
2018-07-10T03:09:47.240Z,18.50
2018-07-10T03:12:16.832Z,18.44
2018-07-10T03:14:45.172Z,18.54
2018-07-10T03:17:17.208Z,18.54
2018-07-10T03:19:45.449Z,18.52
2018-07-10T03:22:14.247Z,18.43
2018-07-10T03:24:42.316Z,18.48
2018-07-10T03:27:10.574Z,18.49
2018-07-10T03:29:38.620Z,18.55
2018-07-10T03:32:06.995Z,18.62
2018-07-10T03:34:36.122Z,18.66
2018-07-10T03:37:05.111Z,18.70
2018-07-10T03:39:33.589Z,18.79
2018-07-10T03:42:01.827Z,18.79
2018-07-10T03:44:30.406Z,18.77
2018-07-10T03:46:58.582Z,18.83
2018-07-10T03:49:26.832Z,18.93
2018-07-10T03:51:55.993Z,19.00
2018-07-10T03:54:24.448Z,19.08
2018-07-10T03:56:52.737Z,19.19
2018-07-10T03:59:20.980Z,19.19
2018-07-10T04:01:49.169Z,19.15
2018-07-10T04:04:17.405Z,19.17
2018-07-10T04:06:46.044Z,19.19
2018-07-10T04:09:14.307Z,19.22
2018-07-10T04:11:47.296Z,19.18
2018-07-10T04:14:16.490Z,19.21
2018-07-10T04:16:45.497Z,19.30
2018-07-10T04:19:14.747Z,19.27
2018-07-10T04:21:55.212Z,19.33
2018-07-10T04:24:23.719Z,19.37
2018-07-10T04:27:30.842Z,19.49
2018-07-10T04:30:09.862Z,19.73
2018-07-10T04:32:39.769Z,19.96
2018-07-10T04:35:08.467Z,20.13
2018-07-10T04:37:39.285Z,20.33
2018-07-10T04:40:07.540Z,20.54
2018-07-10T04:42:42.113Z,20.50
2018-07-10T04:45:12.412Z,20.52
2018-07-10T04:47:44.368Z,20.55
2018-07-10T04:50:17.621Z,20.60
2018-07-10T04:52:52.077Z,20.65
2018-07-10T04:55:20.651Z,20.62
2018-07-10T04:58:07.958Z,20.65
2018-07-10T05:00:45.157Z,20.79
2018-07-10T05:03:15.373Z,20.97
2018-07-10T05:05:44.092Z,21.08
2018-07-10T05:08:13.109Z,21.22
2018-07-10T05:10:41.771Z,21.31
2018-07-10T05:13:10.050Z,21.36
2018-07-10T05:15:39.349Z,21.27
2018-07-10T05:18:10.308Z,21.04
2018-07-10T05:20:42.973Z,21.11
2018-07-10T05:23:12.540Z,21.18
2018-07-10T05:25:43.415Z,21.23
2018-07-10T05:28:12.872Z,21.24
2018-07-10T05:30:43.452Z,21.26
2018-07-10T05:33:13.545Z,21.33
2018-07-10T05:35:42.365Z,21.37
2018-07-10T05:38:10.548Z,21.37
2018-07-10T05:40:39.105Z,21.36
2018-07-10T05:43:13.353Z,21.29
2018-07-10T05:45:41.821Z,21.27
2018-07-10T05:48:10.578Z,21.24
2018-07-10T05:50:39.365Z,21.22
2018-07-10T05:53:10.617Z,21.31
2018-07-10T05:55:46.046Z,21.31
2018-07-10T05:58:14.164Z,21.51
2018-07-10T06:00:42.466Z,21.62
2018-07-10T06:03:10.669Z,21.62
2018-07-10T06:05:38.861Z,21.33
2018-07-10T06:08:07.034Z,21.41
2018-07-10T06:10:35.345Z,21.45
2018-07-10T06:13:04.669Z,21.56
2018-07-10T06:15:33.000Z,21.75
2018-07-10T06:18:01.310Z,21.77
2018-07-10T06:20:29.594Z,21.91
2018-07-10T06:22:58.190Z,22.02
2018-07-10T06:25:35.639Z,22.15
2018-07-10T06:28:13.283Z,22.26
2018-07-10T06:30:42.835Z,22.24
2018-07-10T06:33:23.484Z,22.26
2018-07-10T06:36:02.663Z,22.31
2018-07-10T06:38:30.904Z,22.41
2018-07-10T06:40:59.177Z,22.47
2018-07-10T06:44:00.432Z,22.54
2018-07-10T06:46:31.511Z,22.70
2018-07-10T06:49:18.045Z,22.75
2018-07-10T06:51:46.122Z,22.83
2018-07-10T06:54:14.317Z,22.92
2018-07-10T06:56:45.266Z,22.97
2018-07-10T06:59:13.382Z,23.10
2018-07-10T07:01:41.530Z,23.23
2018-07-10T07:04:10.171Z,23.32
2018-07-10T07:06:38.401Z,23.36
2018-07-10T07:09:06.470Z,23.32
2018-07-10T07:11:35.255Z,23.15
2018-07-10T07:14:03.441Z,23.08
2018-07-10T07:16:31.608Z,22.96
2018-07-10T07:18:59.804Z,22.98
2018-07-10T07:21:28.266Z,22.91
2018-07-10T07:23:56.436Z,22.96
2018-07-10T07:26:24.601Z,23.21
2018-07-10T07:28:52.684Z,23.32
2018-07-10T07:31:20.877Z,23.42
2018-07-10T07:33:49.476Z,23.43
2018-07-10T07:36:18.645Z,23.41
2018-07-10T07:38:46.700Z,23.38
2018-07-10T07:41:15.380Z,23.35
2018-07-10T07:43:43.535Z,23.33
2018-07-10T07:46:12.999Z,23.36
2018-07-10T07:48:41.589Z,23.50
2018-07-10T07:51:09.818Z,23.70
2018-07-10T07:53:38.136Z,23.92
2018-07-10T07:56:07.149Z,24.29
2018-07-10T07:58:35.703Z,24.37
2018-07-10T08:01:04.148Z,24.44
2018-07-10T08:03:32.577Z,24.63
2018-07-10T08:06:00.841Z,24.58
2018-07-10T08:08:29.564Z,24.61
2018-07-10T08:10:58.605Z,24.84
2018-07-10T08:13:26.992Z,24.93
2018-07-10T08:15:55.448Z,25.08
2018-07-10T08:18:23.783Z,25.25
2018-07-10T08:20:52.272Z,25.36
2018-07-10T08:23:20.604Z,25.32
2018-07-10T08:25:49.084Z,25.35
2018-07-10T08:28:17.473Z,25.42
2018-07-10T08:30:45.872Z,25.52
2018-07-10T08:33:14.673Z,25.45
2018-07-10T08:35:43.135Z,25.36
2018-07-10T08:38:12.376Z,25.35
2018-07-10T08:40:41.335Z,25.35
2018-07-10T08:43:09.739Z,25.22
2018-07-10T08:45:38.196Z,25.20
2018-07-10T08:48:06.609Z,25.18
2018-07-10T08:50:34.956Z,24.84
2018-07-10T08:53:03.388Z,24.67
2018-07-10T08:55:31.713Z,24.89
2018-07-10T08:58:00.080Z,25.16
2018-07-10T09:00:28.513Z,25.46
2018-07-10T09:02:56.730Z,25.55
2018-07-10T09:05:25.010Z,25.51
2018-07-10T09:07:53.595Z,25.32
2018-07-10T09:10:21.855Z,25.28
2018-07-10T09:12:50.288Z,24.98
2018-07-10T09:15:18.668Z,25.15
2018-07-10T09:17:46.959Z,25.19
2018-07-10T09:20:25.043Z,25.24
2018-07-10T09:22:53.437Z,25.12
2018-07-10T09:25:24.689Z,25.16
2018-07-10T09:27:54.120Z,25.16
2018-07-10T09:30:22.498Z,24.99
2018-07-10T09:32:50.850Z,24.96
2018-07-10T09:35:19.139Z,25.01
2018-07-10T09:37:47.429Z,24.90
2018-07-10T09:40:16.990Z,24.91
2018-07-10T09:42:54.396Z,25.18
2018-07-10T09:45:25.495Z,25.52
2018-07-10T09:47:53.965Z,25.82
2018-07-10T09:50:22.336Z,26.12
2018-07-10T09:52:50.613Z,26.30
2018-07-10T09:55:18.986Z,26.50
2018-07-10T09:57:47.410Z,26.55
2018-07-10T10:00:15.908Z,26.54
2018-07-10T10:02:44.702Z,26.31
2018-07-10T10:05:13.375Z,26.06
2018-07-10T10:07:41.708Z,25.88
2018-07-10T10:10:10.074Z,25.61
2018-07-10T10:12:38.464Z,25.75
2018-07-10T10:15:06.834Z,25.61
2018-07-10T10:17:35.298Z,25.49
2018-07-10T10:20:03.770Z,25.44
2018-07-10T10:22:32.943Z,25.58
2018-07-10T10:25:03.367Z,25.56
2018-07-10T10:27:32.261Z,25.59
2018-07-10T10:30:01.333Z,25.50
2018-07-10T10:32:29.866Z,25.56
2018-07-10T10:34:58.390Z,25.37
2018-07-10T10:37:26.982Z,25.53
2018-07-10T10:39:56.480Z,25.65
2018-07-10T10:42:26.090Z,25.99
2018-07-10T10:44:55.411Z,26.17
2018-07-10T10:47:24.231Z,26.24
2018-07-10T10:49:53.602Z,26.43
2018-07-10T10:52:22.034Z,26.68
2018-07-10T10:54:50.868Z,26.59
2018-07-10T10:57:19.257Z,26.36
2018-07-10T10:59:51.704Z,26.47
2018-07-10T11:02:21.000Z,26.52
2018-07-10T11:04:50.954Z,26.16
2018-07-10T11:07:20.581Z,26.12
2018-07-10T11:09:49.214Z,26.05
2018-07-10T11:12:18.109Z,25.99
2018-07-10T11:14:46.954Z,26.05
2018-07-10T11:17:28.444Z,26.12
2018-07-10T11:20:05.726Z,26.29
2018-07-10T11:22:44.661Z,26.46
2018-07-10T11:25:13.124Z,26.66
2018-07-10T11:28:05.752Z,26.54
2018-07-10T11:30:34.597Z,26.35
2018-07-10T11:33:05.258Z,26.36
2018-07-10T11:35:34.462Z,26.40
2018-07-10T11:38:06.164Z,26.60
2018-07-10T11:40:35.430Z,26.54
2018-07-10T11:43:06.348Z,26.45
2018-07-10T11:45:34.897Z,26.55
2018-07-10T11:48:03.360Z,26.76
2018-07-10T11:50:31.901Z,26.86
2018-07-10T11:53:00.238Z,26.94
2018-07-10T11:55:28.607Z,27.03
2018-07-10T11:57:57.357Z,27.21
2018-07-10T12:00:25.812Z,27.03
2018-07-10T12:02:54.264Z,26.97
2018-07-10T12:05:22.684Z,27.09
2018-07-10T12:07:55.285Z,27.00
2018-07-10T12:10:25.769Z,26.96
2018-07-10T12:12:54.485Z,27.04
2018-07-10T12:15:23.567Z,27.23
2018-07-10T12:17:55.535Z,27.31
2018-07-10T12:20:30.694Z,27.28
2018-07-10T12:23:00.008Z,27.34
2018-07-10T12:25:32.765Z,27.16
2018-07-10T12:28:01.547Z,27.19
2018-07-10T12:30:30.630Z,27.34
2018-07-10T12:32:58.890Z,27.54
2018-07-10T12:35:27.300Z,27.54
2018-07-10T12:37:55.606Z,27.55
2018-07-10T12:40:24.437Z,28.00
2018-07-10T12:42:53.540Z,29.10
2018-07-10T12:45:21.873Z,29.99
2018-07-10T12:47:50.245Z,30.63
2018-07-10T12:50:18.753Z,31.32
2018-07-10T12:52:47.187Z,32.18
2018-07-10T12:55:15.589Z,32.69
2018-07-10T12:57:45.060Z,32.87
2018-07-10T13:00:14.012Z,33.03
2018-07-10T13:02:49.808Z,32.98
2018-07-10T13:05:20.341Z,31.81
2018-07-10T13:07:48.514Z,31.34
2018-07-10T13:10:17.175Z,31.50
2018-07-10T13:12:45.524Z,31.08
2018-07-10T13:15:14.053Z,31.72
2018-07-10T13:17:45.825Z,32.28
2018-07-10T13:20:15.397Z,31.85
2018-07-10T13:22:43.630Z,30.94
2018-07-10T13:25:11.679Z,31.19
2018-07-10T13:27:39.808Z,31.68
2018-07-10T13:30:08.386Z,32.04
2018-07-10T13:32:36.831Z,32.26
2018-07-10T13:35:05.055Z,32.52
2018-07-10T13:37:35.630Z,32.83
2018-07-10T13:40:05.843Z,33.40
2018-07-10T13:42:45.179Z,33.84
2018-07-10T13:45:14.253Z,34.32
2018-07-10T13:47:42.589Z,34.35
2018-07-10T13:50:12.396Z,33.40
2018-07-10T13:52:40.907Z,33.54
2018-07-10T13:55:09.096Z,33.19
2018-07-10T13:57:37.986Z,32.78
2018-07-10T14:00:06.126Z,32.07
2018-07-10T14:02:37.636Z,31.55
2018-07-10T14:05:05.944Z,30.96
2018-07-10T14:07:34.426Z,30.39
2018-07-10T14:10:02.661Z,29.76
2018-07-10T14:12:30.949Z,29.36
2018-07-10T14:14:59.299Z,29.12
2018-07-10T14:17:27.410Z,28.78
2018-07-10T14:19:55.561Z,28.65
2018-07-10T14:22:25.075Z,28.41
2018-07-10T14:24:53.199Z,28.35
2018-07-10T14:27:21.609Z,27.89
2018-07-10T14:29:49.858Z,27.89
2018-07-10T14:32:18.075Z,28.12
2018-07-10T14:34:46.204Z,28.27
2018-07-10T14:37:14.368Z,28.50
2018-07-10T14:39:42.546Z,28.66
2018-07-10T14:42:10.658Z,28.21
2018-07-10T14:44:40.222Z,28.12
2018-07-10T14:47:08.849Z,27.39
2018-07-10T14:49:37.225Z,27.36
2018-07-10T14:52:05.459Z,27.84
2018-07-10T14:54:33.805Z,28.17
2018-07-10T14:57:02.257Z,28.49
2018-07-10T14:59:30.487Z,28.67
2018-07-10T15:01:58.648Z,28.35
2018-07-10T15:04:26.925Z,28.31
2018-07-10T15:06:55.996Z,28.33
2018-07-10T15:09:24.293Z,28.44
2018-07-10T15:11:52.442Z,28.53
2018-07-10T15:14:20.507Z,28.38
2018-07-10T15:16:54.362Z,28.44
2018-07-10T15:19:22.489Z,28.38
2018-07-10T15:21:51.254Z,28.17
2018-07-10T15:24:19.214Z,28.09
2018-07-10T15:26:47.421Z,27.76
2018-07-10T15:29:21.174Z,27.90
2018-07-10T15:31:50.592Z,27.76
2018-07-10T15:34:18.791Z,27.67
2018-07-10T15:36:46.943Z,27.66
2018-07-10T15:39:15.143Z,27.73
2018-07-10T15:41:43.432Z,27.63
2018-07-10T15:44:11.600Z,27.50
2018-07-10T15:46:39.808Z,27.52
2018-07-10T15:49:07.947Z,27.50
2018-07-10T15:51:36.085Z,27.58
2018-07-10T15:54:04.825Z,27.52
2018-07-10T15:56:32.972Z,27.28
2018-07-10T15:59:01.244Z,27.31
2018-07-10T16:01:29.469Z,27.55
2018-07-10T16:03:57.737Z,27.23
2018-07-10T16:06:27.513Z,27.17
2018-07-10T16:09:06.838Z,27.13
2018-07-10T16:11:35.341Z,26.72
2018-07-10T16:14:03.955Z,26.73
2018-07-10T16:16:36.816Z,26.59
2018-07-10T16:19:11.352Z,26.58
2018-07-10T16:21:52.005Z,26.48
2018-07-10T16:24:20.818Z,26.83
2018-07-10T16:26:48.968Z,26.61
2018-07-10T16:29:19.372Z,26.75
2018-07-10T16:31:48.899Z,26.83
2018-07-10T16:34:17.190Z,26.52
2018-07-10T16:36:45.380Z,26.54
2018-07-10T16:39:13.495Z,26.06
2018-07-10T16:41:47.686Z,25.45
2018-07-10T16:44:15.856Z,25.17
2018-07-10T16:46:47.507Z,24.81
2018-07-10T16:49:19.556Z,24.58
2018-07-10T16:52:06.750Z,24.35
2018-07-10T16:54:35.115Z,24.22
2018-07-10T16:57:03.686Z,23.93
2018-07-10T16:59:31.971Z,23.81
2018-07-10T17:02:00.158Z,23.83
2018-07-10T17:04:28.396Z,23.70
2018-07-10T17:06:56.570Z,23.63
2018-07-10T17:09:24.832Z,23.40
2018-07-10T17:11:53.080Z,23.37
2018-07-10T17:14:21.197Z,23.31
2018-07-10T17:16:49.626Z,23.34
2018-07-10T17:19:17.805Z,23.28
2018-07-10T17:21:46.049Z,23.16
2018-07-10T17:24:14.167Z,23.14
2018-07-10T17:26:42.397Z,23.07
2018-07-10T17:29:11.980Z,23.06
2018-07-10T17:31:40.228Z,23.05
2018-07-10T17:34:08.517Z,23.04
2018-07-10T17:36:36.714Z,22.90
2018-07-10T17:39:06.007Z,22.89
2018-07-10T17:41:36.390Z,22.88
2018-07-10T17:44:06.698Z,22.83
2018-07-10T17:46:35.689Z,22.86
2018-07-10T17:49:04.909Z,22.86
2018-07-10T17:51:33.579Z,22.78
2018-07-10T17:54:02.160Z,22.70
2018-07-10T17:56:30.635Z,22.58
2018-07-10T17:58:59.510Z,22.54
2018-07-10T18:01:27.672Z,22.55
2018-07-10T18:03:55.719Z,22.51
2018-07-10T18:06:23.742Z,22.45
2018-07-10T18:08:51.919Z,22.33
2018-07-10T18:11:20.087Z,22.33
2018-07-10T18:13:49.184Z,22.29
2018-07-10T18:16:17.411Z,22.27
2018-07-10T18:18:45.909Z,22.29
2018-07-10T18:21:14.108Z,22.20
2018-07-10T18:23:42.361Z,22.16
2018-07-10T18:26:10.471Z,22.06
2018-07-10T18:28:38.825Z,21.91
2018-07-10T18:31:07.182Z,21.89
2018-07-10T18:33:35.303Z,21.91
2018-07-10T18:36:03.451Z,21.94
2018-07-10T18:38:31.633Z,21.84
2018-07-10T18:41:00.050Z,21.87
2018-07-10T18:43:28.346Z,21.94
2018-07-10T18:45:56.581Z,22.03
2018-07-10T18:48:26.823Z,22.09
2018-07-10T18:50:56.048Z,22.04
2018-07-10T18:53:24.943Z,22.01
2018-07-10T18:55:53.519Z,21.90
2018-07-10T18:59:03.274Z,21.92
2018-07-10T19:01:41.718Z,21.86
2018-07-10T19:04:10.025Z,21.72
2018-07-10T19:06:38.943Z,21.70
2018-07-10T19:09:07.706Z,21.75
2018-07-10T19:11:36.055Z,21.77
2018-07-10T19:14:04.194Z,21.62
2018-07-10T19:16:32.844Z,21.55
2018-07-10T19:19:03.248Z,21.58
2018-07-10T19:21:37.269Z,21.60
2018-07-10T19:24:10.783Z,21.76
2018-07-10T19:26:39.123Z,21.70
2018-07-10T19:29:25.108Z,21.62
2018-07-10T19:31:54.089Z,21.58
2018-07-10T19:34:22.395Z,21.60
2018-07-10T19:36:50.614Z,21.58
2018-07-10T19:39:18.817Z,21.47
2018-07-10T19:41:47.097Z,21.54
2018-07-10T19:44:15.287Z,21.47
2018-07-10T19:46:43.607Z,21.42
2018-07-10T19:49:12.934Z,21.38
2018-07-10T19:51:41.929Z,21.40
2018-07-10T19:54:15.385Z,21.44
2018-07-10T19:56:43.696Z,21.40
2018-07-10T19:59:13.334Z,21.46
2018-07-10T20:01:46.511Z,21.35
2018-07-10T20:05:26.991Z,21.37
2018-07-10T20:08:04.865Z,21.14
2018-07-10T20:10:41.429Z,21.23
2018-07-10T20:13:18.394Z,21.23
2018-07-10T20:15:53.598Z,21.31
2018-07-10T20:20:32.231Z,21.11
2018-07-10T20:23:38.758Z,21.00
2018-07-10T20:28:27.216Z,21.02
2018-07-10T20:31:05.497Z,20.85
2018-07-10T20:33:56.186Z,20.87
2018-07-10T20:36:25.294Z,20.84
2018-07-10T20:38:56.478Z,20.90
2018-07-10T20:41:30.631Z,20.85
2018-07-10T20:43:58.908Z,20.84
2018-07-10T20:46:27.075Z,20.81
2018-07-10T20:49:01.252Z,20.78
2018-07-10T20:51:36.545Z,20.81
2018-07-10T20:54:14.596Z,20.77
2018-07-10T20:56:58.605Z,20.79
2018-07-10T20:59:43.952Z,20.77
2018-07-10T21:02:19.445Z,20.73
2018-07-10T21:05:12.047Z,20.69
2018-07-10T21:07:54.463Z,20.60
2018-07-10T21:10:31.734Z,20.59
2018-07-10T21:13:08.714Z,20.52
2018-07-10T21:15:54.050Z,20.54
2018-07-10T21:18:37.464Z,20.60
2018-07-10T21:21:12.464Z,20.48
2018-07-10T21:23:53.796Z,20.44
2018-07-10T21:27:29.219Z,20.44
2018-07-10T21:30:20.008Z,20.40
2018-07-10T21:34:00.794Z,20.33
2018-07-10T21:36:36.008Z,20.30
2018-07-10T21:39:14.479Z,20.27
2018-07-10T21:41:56.388Z,20.11
2018-07-10T21:45:35.861Z,20.02
2018-07-10T21:48:31.012Z,20.04
2018-07-10T21:50:59.223Z,20.19
2018-07-10T21:53:27.469Z,20.15
2018-07-10T21:55:55.497Z,20.20
2018-07-10T21:58:23.667Z,20.25
2018-07-10T22:01:58.866Z,20.12
2018-07-10T22:04:28.397Z,19.77
2018-07-10T22:06:58.746Z,19.67
2018-07-10T22:09:28.781Z,19.68
2018-07-10T22:11:59.460Z,19.64
2018-07-10T22:14:27.769Z,19.70
2018-07-10T22:16:56.977Z,19.69
2018-07-10T22:19:28.416Z,19.72
2018-07-10T22:21:56.972Z,19.66
2018-07-10T22:24:26.897Z,19.56
2018-07-10T22:26:58.234Z,19.48
2018-07-10T22:29:32.143Z,19.51
2018-07-10T22:32:01.757Z,19.53
2018-07-10T22:34:31.349Z,19.46
2018-07-10T22:36:59.676Z,19.47
2018-07-10T22:39:28.759Z,19.43
2018-07-10T22:41:59.476Z,19.51
2018-07-10T22:44:29.405Z,19.47
2018-07-10T22:46:59.604Z,19.46
2018-07-10T22:49:27.866Z,19.45
2018-07-10T22:51:59.084Z,19.51
2018-07-10T22:54:28.299Z,19.56
2018-07-10T22:56:56.977Z,19.61
2018-07-10T22:59:25.272Z,19.59
2018-07-10T23:01:53.549Z,19.53
2018-07-10T23:04:22.605Z,19.56
2018-07-10T23:06:50.933Z,19.53
2018-07-10T23:09:19.013Z,19.54
2018-07-10T23:11:47.530Z,19.60
2018-07-10T23:14:15.716Z,19.49
2018-07-10T23:16:44.359Z,19.38
2018-07-10T23:19:12.640Z,19.16
2018-07-10T23:21:41.789Z,19.13
2018-07-10T23:24:10.142Z,19.14
2018-07-10T23:26:40.229Z,19.22
2018-07-10T23:29:09.433Z,19.30
2018-07-10T23:31:39.658Z,19.40
2018-07-10T23:34:11.465Z,19.34
2018-07-10T23:36:39.793Z,19.43
2018-07-10T23:39:11.526Z,19.48
2018-07-10T23:42:01.338Z,19.48
2018-07-10T23:44:38.992Z,19.45
2018-07-10T23:47:10.240Z,19.33
2018-07-10T23:49:38.457Z,19.27
2018-07-10T23:52:17.468Z,19.24
2018-07-10T23:54:45.550Z,19.11
2018-07-10T23:57:13.836Z,19.06
2018-07-10T23:59:42.309Z,19.05
